Stephan, South Dakota
Current Conditions -  °F | °C
As of 12:55 AM on Monday 22 Dec 2014 (Local Time) from K9V9 Reporting Station
Broken Clouds Broken Clouds  
Wind Chill: 27°   Ceiling: 8000
Heat Index: 33°   Visibility: 10mi
Dew Point: 31°   Wind: 7mph
Humidity: 92%   Direction: 270°W
Pressure: 29.44"   Gusts: NA
Location:  44.26°N, 99.44°W
Report Text: K9V9 220655Z AUTO 27006KT 10SM BKN080 BKN110 01/00 A2944 RMK AO2 T00071004
Loading
Personal Weather Stations






























Interactive Weather Map New forecast layout! Learn more

10-Day Weather Forecast

Advertisements
Track Severe Weather on mobile